createdAt,value
2019-03-22T00:00:31.633Z,102190.06
2019-03-22T00:01:33.561Z,102192.25
2019-03-22T00:02:34.952Z,102190.44
2019-03-22T00:03:36.360Z,102191.41
2019-03-22T00:04:37.773Z,102191.52
2019-03-22T00:05:39.169Z,102201.41
2019-03-22T00:06:40.548Z,102199.70
2019-03-22T00:07:41.941Z,102201.52
2019-03-22T00:08:43.317Z,102204.70
2019-03-22T00:09:44.822Z,102202.48
2019-03-22T00:10:46.209Z,102197.62
2019-03-22T00:11:47.737Z,102201.28
2019-03-22T00:12:49.150Z,102203.96
2019-03-22T00:13:50.567Z,102217.84
2019-03-22T00:14:51.987Z,102212.48
2019-03-22T00:15:53.383Z,102212.01
2019-03-22T00:16:54.764Z,102212.62
2019-03-22T00:17:56.163Z,102213.45
2019-03-22T00:18:57.549Z,102213.09
2019-03-22T00:19:59.144Z,102220.66
2019-03-22T00:21:00.533Z,102222.98
2019-03-22T00:22:02.037Z,102216.75
2019-03-22T00:23:03.427Z,102229.69
2019-03-22T00:24:04.964Z,102232.36
2019-03-22T00:25:06.543Z,102229.69
2019-03-22T00:26:09.044Z,102232.47
2019-03-22T00:27:16.372Z,102238.70
2019-03-22T00:28:13.833Z,102238.33
2019-03-22T00:29:15.305Z,102244.06
2019-03-22T00:30:16.704Z,102242.83
2019-03-22T00:31:18.080Z,102249.06
2019-03-22T00:32:19.460Z,102249.53
2019-03-22T00:33:20.846Z,102252.72
2019-03-22T00:34:22.336Z,102256.73
2019-03-22T00:35:23.725Z,102262.94
2019-03-22T00:36:25.124Z,102256.44
2019-03-22T00:37:26.597Z,102265.25
2019-03-22T00:38:27.997Z,102272.32
2019-03-22T00:39:29.381Z,102265.15
2019-03-22T00:40:30.885Z,102270.87
2019-03-22T00:41:32.379Z,102275.27
2019-03-22T00:42:34.232Z,102273.56
2019-03-22T00:43:35.618Z,102287.34
2019-03-22T00:44:37.006Z,102289.52
2019-03-22T00:45:38.493Z,102293.06
2019-03-22T00:46:39.888Z,102295.75
2019-03-22T00:47:41.264Z,102294.05
2019-03-22T00:48:42.668Z,102290.75
2019-03-22T00:49:44.050Z,102294.78
2019-03-22T00:50:45.456Z,102295.61
2019-03-22T00:51:46.849Z,102304.53
2019-03-22T00:52:48.246Z,102304.53
2019-03-22T00:53:49.759Z,102303.19
2019-03-22T00:54:51.212Z,102300.00
2019-03-22T00:55:52.588Z,102303.19
2019-03-22T00:56:53.982Z,102300.87
2019-03-22T00:57:55.372Z,102303.56
2019-03-22T00:58:56.869Z,102299.91
2019-03-22T00:59:58.344Z,102299.91
2019-03-22T01:00:59.797Z,102292.33
2019-03-22T01:02:01.218Z,102292.83
2019-03-22T01:03:02.591Z,102300.73
2019-03-22T01:04:03.992Z,102293.20
2019-03-22T01:05:07.297Z,102302.59
2019-03-22T01:06:08.968Z,102306.61
2019-03-22T01:07:10.371Z,102307.44
2019-03-22T01:08:11.883Z,102311.83
2019-03-22T01:09:13.386Z,102307.44
2019-03-22T01:10:14.865Z,102316.73
2019-03-22T01:11:16.297Z,102308.31
2019-03-22T01:12:17.804Z,102309.16
2019-03-22T01:13:19.345Z,102314.05
2019-03-22T01:14:20.863Z,102310.50
2019-03-22T01:15:22.340Z,102317.09
2019-03-22T01:16:23.835Z,102316.73
2019-03-22T01:17:25.414Z,102311.37
2019-03-22T01:18:26.931Z,102317.56
2019-03-22T01:19:28.421Z,102313.17
2019-03-22T01:20:29.858Z,102315.02
2019-03-22T01:21:31.372Z,102322.20
2019-03-22T01:22:32.923Z,102318.31
2019-03-22T01:23:34.424Z,102320.12
2019-03-22T01:24:35.902Z,102323.67
2019-03-22T01:25:37.334Z,102328.16
2019-03-22T01:26:38.944Z,102324.27
2019-03-22T01:27:41.656Z,102326.22
2019-03-22T01:28:43.167Z,102335.98
2019-03-22T01:29:44.645Z,102330.84
2019-03-22T01:30:46.185Z,102330.48
2019-03-22T01:31:47.800Z,102337.66
2019-03-22T01:32:49.408Z,102332.39
2019-03-22T01:33:50.932Z,102328.84
2019-03-22T01:34:52.465Z,102339.56
2019-03-22T01:35:53.945Z,102330.28
2019-03-22T01:36:55.345Z,102337.95
2019-03-22T01:37:56.787Z,102336.61
2019-03-22T01:38:58.237Z,102336.75
2019-03-22T01:39:59.643Z,102336.38
2019-03-22T01:41:01.084Z,102333.80
2019-03-22T01:42:02.812Z,102348.17
2019-03-22T01:43:04.260Z,102342.34
2019-03-22T01:44:08.972Z,102345.03
2019-03-22T01:45:12.505Z,102353.07
2019-03-22T01:46:13.934Z,102345.87
2019-03-22T01:47:15.370Z,102346.84
2019-03-22T01:48:16.805Z,102354.05
2019-03-22T01:49:18.244Z,102352.80
2019-03-22T01:50:19.784Z,102352.80
2019-03-22T01:51:21.210Z,102352.44
2019-03-22T01:52:22.651Z,102353.77
2019-03-22T01:53:24.080Z,102352.94
2019-03-22T01:54:25.508Z,102357.33
2019-03-22T01:55:26.945Z,102357.33
2019-03-22T01:56:28.353Z,102351.59
2019-03-22T01:57:29.737Z,102347.07
2019-03-22T01:58:31.185Z,102348.41
2019-03-22T01:59:32.561Z,102347.44
2019-03-22T02:00:33.973Z,102348.31
2019-03-22T02:01:35.378Z,102346.10
2019-03-22T02:02:36.737Z,102346.10
2019-03-22T02:03:38.236Z,102334.54
2019-03-22T02:04:39.607Z,102341.98
2019-03-22T02:05:41.007Z,102339.77
2019-03-22T02:06:42.486Z,102347.81
2019-03-22T02:07:43.886Z,102349.52
2019-03-22T02:08:45.297Z,102349.05
2019-03-22T02:09:46.697Z,102355.62
2019-03-22T02:10:48.107Z,102354.28
2019-03-22T02:11:49.561Z,102357.83
2019-03-22T02:12:50.982Z,102364.03
2019-03-22T02:13:52.402Z,102354.28
2019-03-22T02:14:54.043Z,102360.98
2019-03-22T02:15:55.455Z,102363.66
2019-03-22T02:16:56.860Z,102365.87
2019-03-22T02:17:58.263Z,102362.83
2019-03-22T02:18:59.776Z,102367.22
2019-03-22T02:20:01.285Z,102369.90
2019-03-22T02:21:02.795Z,102373.78
2019-03-22T02:22:04.300Z,102374.75
2019-03-22T02:23:05.676Z,102375.13
2019-03-22T02:24:07.074Z,102377.34
2019-03-22T02:25:08.638Z,102376.84
2019-03-22T02:26:10.037Z,102371.00
2019-03-22T02:27:11.441Z,102369.16
2019-03-22T02:28:12.935Z,102371.38
2019-03-22T02:29:14.512Z,102369.53
2019-03-22T02:30:16.766Z,102370.87
2019-03-22T02:31:18.187Z,102370.30
2019-03-22T02:32:19.570Z,102368.96
2019-03-22T02:33:20.945Z,102375.56
2019-03-22T02:34:22.330Z,102373.75
2019-03-22T02:35:29.174Z,102371.08
2019-03-22T02:36:26.992Z,102379.95
2019-03-22T02:37:28.389Z,102370.57
2019-03-22T02:38:29.763Z,102373.75
2019-03-22T02:39:31.362Z,102372.41
2019-03-22T02:40:32.765Z,102375.47
2019-03-22T02:41:34.151Z,102373.15
2019-03-22T02:42:35.533Z,102370.57
2019-03-22T02:43:36.921Z,102362.89
2019-03-22T02:44:38.306Z,102367.05
2019-03-22T02:45:39.691Z,102362.05
2019-03-22T02:46:41.069Z,102362.42
2019-03-22T02:47:42.476Z,102352.17
2019-03-22T02:48:43.932Z,102359.37
2019-03-22T02:49:45.326Z,102364.97
2019-03-22T02:50:46.802Z,102365.47
2019-03-22T02:51:48.299Z,102364.50
2019-03-22T02:52:49.777Z,102354.24
2019-03-22T02:53:51.164Z,102357.80
2019-03-22T02:54:52.645Z,102370.23
2019-03-22T02:55:54.202Z,102367.05
2019-03-22T02:56:55.754Z,102364.13
2019-03-22T02:57:57.157Z,102364.50
2019-03-22T02:58:59.461Z,102366.31
2019-03-22T03:00:01.097Z,102369.50
2019-03-22T03:01:02.466Z,102373.52
2019-03-22T03:02:03.962Z,102375.33
2019-03-22T03:03:05.345Z,102385.22
2019-03-22T03:04:06.748Z,102385.32
2019-03-22T03:05:08.750Z,102390.69
2019-03-22T03:06:11.160Z,102389.07
2019-03-22T03:07:12.567Z,102394.44
2019-03-22T03:08:14.076Z,102398.09
2019-03-22T03:09:15.450Z,102400.88
2019-03-22T03:10:16.877Z,102408.91
2019-03-22T03:11:18.211Z,102413.53
2019-03-22T03:12:19.607Z,102418.03
2019-03-22T03:13:20.981Z,102416.31
2019-03-22T03:14:22.481Z,102420.34
2019-03-22T03:15:23.997Z,102415.48
2019-03-22T03:16:25.413Z,102417.66
2019-03-22T03:17:26.935Z,102426.20
2019-03-22T03:18:28.439Z,102426.67
2019-03-22T03:19:29.809Z,102430.70
2019-03-22T03:20:31.234Z,102429.35
2019-03-22T03:21:32.588Z,102430.70
2019-03-22T03:22:33.986Z,102431.66
2019-03-22T03:23:35.374Z,102432.63
2019-03-22T03:24:36.974Z,102429.86
2019-03-22T03:25:38.384Z,102434.72
2019-03-22T03:26:39.904Z,102438.27
2019-03-22T03:27:41.353Z,102434.34
2019-03-22T03:28:42.835Z,102433.87
2019-03-22T03:29:44.310Z,102428.02
2019-03-22T03:30:45.785Z,102435.45
2019-03-22T03:31:47.165Z,102433.75
2019-03-22T03:32:48.584Z,102435.95
2019-03-22T03:33:50.108Z,102436.80
2019-03-22T03:34:52.567Z,102438.14
2019-03-22T03:35:53.977Z,102434.98
2019-03-22T03:36:55.393Z,102436.70
2019-03-22T03:37:56.798Z,102444.84
2019-03-22T03:38:58.199Z,102441.19
2019-03-22T03:39:59.573Z,102455.94
2019-03-22T03:41:01.070Z,102455.94
2019-03-22T03:42:02.654Z,102455.84
2019-03-22T03:43:04.037Z,102455.34
2019-03-22T03:44:05.417Z,102464.72
2019-03-22T03:45:19.334Z,102463.02
2019-03-22T03:46:20.740Z,102465.13
2019-03-22T03:47:22.151Z,102464.56
2019-03-22T03:48:23.557Z,102467.31
2019-03-22T03:49:24.980Z,102467.81
2019-03-22T03:50:26.320Z,102469.15
2019-03-22T03:51:27.715Z,102470.96
2019-03-22T03:52:29.093Z,102467.03
2019-03-22T03:53:30.491Z,102473.64
2019-03-22T03:54:31.882Z,102470.96
2019-03-22T03:55:33.284Z,102472.30
2019-03-22T03:56:34.802Z,102479.78
2019-03-22T03:57:36.221Z,102471.27
2019-03-22T03:58:51.766Z,102472.11
2019-03-22T03:59:41.040Z,102478.34
2019-03-22T04:00:42.631Z,102482.73
2019-03-22T04:01:44.222Z,102482.73
2019-03-22T04:02:45.734Z,102484.45
2019-03-22T04:03:47.213Z,102483.48
2019-03-22T04:04:48.625Z,102484.81
2019-03-22T04:05:51.002Z,102481.16
2019-03-22T04:06:52.395Z,102477.14
2019-03-22T04:07:53.775Z,102479.45
2019-03-22T04:08:55.169Z,102479.92
2019-03-22T04:09:56.545Z,102480.42
2019-03-22T04:10:58.063Z,102480.52
2019-03-22T04:11:59.480Z,102481.39
2019-03-22T04:13:00.997Z,102484.08
2019-03-22T04:14:03.397Z,102487.36
2019-03-22T04:15:05.098Z,102482.06
2019-03-22T04:16:06.472Z,102490.03
2019-03-22T04:17:07.876Z,102491.84
2019-03-22T04:18:09.249Z,102493.66
2019-03-22T04:19:13.864Z,102496.34
2019-03-22T04:20:15.262Z,102491.07
2019-03-22T04:21:16.673Z,102495.47
2019-03-22T04:22:18.087Z,102496.44
2019-03-22T04:23:19.521Z,102495.69
2019-03-22T04:24:20.935Z,102501.05
2019-03-22T04:25:22.406Z,102497.13
2019-03-22T04:26:23.812Z,102498.97
2019-03-22T04:27:25.216Z,102498.23
2019-03-22T04:28:26.586Z,102508.08
2019-03-22T04:29:28.092Z,102511.27
2019-03-22T04:30:29.478Z,102517.47
2019-03-22T04:31:30.861Z,102517.84
2019-03-22T04:32:32.317Z,102522.61
2019-03-22T04:33:33.693Z,102527.88
2019-03-22T04:34:35.099Z,102538.59
2019-03-22T04:35:36.488Z,102532.36
2019-03-22T04:36:37.878Z,102541.75
2019-03-22T04:37:39.375Z,102540.91
2019-03-22T04:38:40.810Z,102541.75
2019-03-22T04:39:42.200Z,102550.66
2019-03-22T04:40:43.599Z,102547.11
2019-03-22T04:41:44.976Z,102551.50
2019-03-22T04:42:46.373Z,102555.66
2019-03-22T04:43:47.745Z,102555.16
2019-03-22T04:44:49.138Z,102553.34
2019-03-22T04:45:51.832Z,102557.84
2019-03-22T04:46:53.628Z,102558.80
2019-03-22T04:48:07.844Z,102564.91
2019-03-22T04:49:10.532Z,102562.73
2019-03-22T04:50:12.393Z,102559.83
2019-03-22T04:51:13.996Z,102559.83
2019-03-22T04:52:17.871Z,102565.69
2019-03-22T04:53:22.211Z,102568.37
2019-03-22T04:54:25.553Z,102572.77
2019-03-22T04:55:27.646Z,102569.71
2019-03-22T04:56:31.047Z,102565.19
2019-03-22T04:57:33.819Z,102571.05
2019-03-22T04:58:38.900Z,102580.03
2019-03-22T04:59:42.789Z,102590.20
2019-03-22T05:00:44.777Z,102591.07
2019-03-22T05:01:48.992Z,102593.75
2019-03-22T05:02:50.673Z,102597.77
2019-03-22T05:03:52.087Z,102601.33
2019-03-22T05:04:53.989Z,102599.12
2019-03-22T05:05:57.497Z,102602.67
2019-03-22T05:06:59.093Z,102602.67
2019-03-22T05:08:00.565Z,102608.78
2019-03-22T05:09:04.163Z,102607.44
2019-03-22T05:10:07.531Z,102611.84
2019-03-22T05:11:11.223Z,102613.55
2019-03-22T05:12:16.212Z,102619.28
2019-03-22T05:13:19.232Z,102614.30
2019-03-22T05:14:21.427Z,102621.74
2019-03-22T05:15:22.932Z,102621.61
2019-03-22T05:16:24.739Z,102631.97
2019-03-22T05:17:26.332Z,102626.14
2019-03-22T05:18:31.000Z,102621.61
2019-03-22T05:19:35.999Z,102628.33
2019-03-22T05:20:39.175Z,102629.94
2019-03-22T05:21:41.168Z,102636.65
2019-03-22T05:22:44.758Z,102642.01
2019-03-22T05:23:47.668Z,102644.19
2019-03-22T05:24:49.874Z,102645.06
2019-03-22T05:25:54.584Z,102645.06
2019-03-22T05:26:57.888Z,102646.41
2019-03-22T05:28:01.582Z,102645.91
2019-03-22T05:29:05.063Z,102647.25
2019-03-22T05:30:07.956Z,102640.55
2019-03-22T05:31:12.931Z,102645.91
2019-03-22T05:32:15.108Z,102650.30
2019-03-22T05:33:16.553Z,102650.80
2019-03-22T05:34:17.915Z,102656.64
2019-03-22T05:35:19.289Z,102655.30
2019-03-22T05:36:21.177Z,102657.52
2019-03-22T05:37:22.670Z,102659.82
2019-03-22T05:38:24.152Z,102657.14
2019-03-22T05:39:25.651Z,102655.80
2019-03-22T05:40:27.032Z,102657.60
2019-03-22T05:41:28.425Z,102658.11
2019-03-22T05:42:29.845Z,102659.82
2019-03-22T05:43:31.240Z,102664.31
2019-03-22T05:44:32.808Z,102666.52
2019-03-22T05:45:34.189Z,102664.31
2019-03-22T05:46:35.584Z,102667.49
2019-03-22T05:47:38.084Z,102671.61
2019-03-22T05:48:39.458Z,102671.73
2019-03-22T05:49:40.857Z,102672.70
2019-03-22T05:50:42.247Z,102688.05
2019-03-22T05:51:43.654Z,102696.09
2019-03-22T05:52:45.044Z,102697.06
2019-03-22T05:53:46.532Z,102703.27
2019-03-22T05:54:47.921Z,102698.41
2019-03-22T05:55:49.484Z,102702.42
2019-03-22T05:56:50.975Z,102698.50
2019-03-22T05:57:52.374Z,102699.38
2019-03-22T05:58:53.762Z,102699.84
2019-03-22T05:59:55.283Z,102700.34
2019-03-22T06:00:56.760Z,102699.22
2019-03-22T06:01:58.155Z,102698.34
2019-03-22T06:02:59.556Z,102705.05
2019-03-22T06:04:00.932Z,102704.17
2019-03-22T06:05:04.335Z,102697.47
2019-03-22T06:06:05.710Z,102699.77
2019-03-22T06:07:07.122Z,102702.73
2019-03-22T06:08:08.516Z,102703.23
2019-03-22T06:09:09.927Z,102700.94
2019-03-22T06:10:11.428Z,102697.28
2019-03-22T06:11:12.837Z,102699.84
2019-03-22T06:12:14.249Z,102699.99
2019-03-22T06:13:15.666Z,102703.92
2019-03-22T06:14:17.128Z,102701.02
2019-03-22T06:15:18.536Z,102698.13
2019-03-22T06:16:19.922Z,102692.91
2019-03-22T06:17:21.313Z,102693.06
2019-03-22T06:18:22.801Z,102692.25
2019-03-22T06:19:24.212Z,102694.61
2019-03-22T06:20:25.617Z,102699.16
2019-03-22T06:21:27.024Z,102701.52
2019-03-22T06:22:28.441Z,102697.52
2019-03-22T06:23:29.872Z,102702.81
2019-03-22T06:24:31.248Z,102701.52
2019-03-22T06:25:32.653Z,102700.70
2019-03-22T06:26:34.512Z,102698.90
2019-03-22T06:27:35.893Z,102700.75
2019-03-22T06:28:37.303Z,102702.24
2019-03-22T06:29:38.692Z,102699.63
2019-03-22T06:30:40.177Z,102704.08
2019-03-22T06:31:41.572Z,102700.66
2019-03-22T06:32:42.966Z,102704.23
2019-03-22T06:33:44.347Z,102699.87
2019-03-22T06:34:45.724Z,102701.35
2019-03-22T06:35:47.122Z,102697.45
2019-03-22T06:36:48.496Z,102699.81
2019-03-22T06:37:49.896Z,102702.13
2019-03-22T06:38:51.286Z,102701.33
2019-03-22T06:39:52.700Z,102705.49
2019-03-22T06:40:55.112Z,102709.66
2019-03-22T06:41:56.522Z,102695.84
2019-03-22T06:42:58.036Z,102704.18
2019-03-22T06:43:59.552Z,102704.31
2019-03-22T06:45:01.028Z,102708.11
2019-03-22T06:46:02.424Z,102703.84
2019-03-22T06:47:03.792Z,102702.86
2019-03-22T06:48:05.192Z,102705.68
2019-03-22T06:49:06.599Z,102704.70
2019-03-22T06:50:08.001Z,102705.95
2019-03-22T06:51:09.409Z,102707.66
2019-03-22T06:52:10.833Z,102701.31
2019-03-22T06:53:12.253Z,102711.92
2019-03-22T06:54:13.827Z,102705.57
2019-03-22T06:55:15.204Z,102708.63
2019-03-22T06:56:16.588Z,102712.19
2019-03-22T06:57:18.055Z,102711.72
2019-03-22T06:58:19.426Z,102707.69
2019-03-22T06:59:20.820Z,102719.78
2019-03-22T07:00:22.311Z,102718.81
2019-03-22T07:01:23.696Z,102714.78
2019-03-22T07:02:25.101Z,102724.19
2019-03-22T07:03:26.522Z,102726.04
2019-03-22T07:04:27.925Z,102725.53
2019-03-22T07:05:29.302Z,102722.00
2019-03-22T07:06:30.823Z,102726.88
2019-03-22T07:07:32.199Z,102730.91
2019-03-22T07:08:33.613Z,102729.20
2019-03-22T07:09:35.117Z,102733.23
2019-03-22T07:10:36.736Z,102733.70
2019-03-22T07:11:38.248Z,102732.36
2019-03-22T07:12:39.658Z,102734.58
2019-03-22T07:13:41.069Z,102727.85
2019-03-22T07:14:42.469Z,102728.22
2019-03-22T07:15:43.853Z,102727.14
2019-03-22T07:16:45.354Z,102724.83
2019-03-22T07:17:46.829Z,102725.19
2019-03-22T07:18:49.233Z,102729.73
2019-03-22T07:19:50.619Z,102723.98
2019-03-22T07:20:52.034Z,102730.34
2019-03-22T07:21:53.443Z,102733.60
2019-03-22T07:22:54.848Z,102727.85
2019-03-22T07:23:56.372Z,102727.08
2019-03-22T07:24:58.213Z,102730.75
2019-03-22T07:25:59.683Z,102727.32
2019-03-22T07:27:01.073Z,102729.17
2019-03-22T07:28:03.524Z,102729.17
2019-03-22T07:29:04.904Z,102727.45
2019-03-22T07:30:18.682Z,102721.20
2019-03-22T07:31:13.304Z,102725.75
2019-03-22T07:32:14.690Z,102728.91
2019-03-22T07:33:16.077Z,102733.91
2019-03-22T07:34:18.571Z,102726.08
2019-03-22T07:35:19.976Z,102733.31
2019-03-22T07:36:21.348Z,102728.03
2019-03-22T07:37:22.748Z,102731.33
2019-03-22T07:38:24.716Z,102725.95
2019-03-22T07:39:26.121Z,102722.42
2019-03-22T07:40:27.504Z,102727.30
2019-03-22T07:41:28.890Z,102714.19
2019-03-22T07:42:30.284Z,102718.63
2019-03-22T07:43:31.668Z,102716.05
2019-03-22T07:44:33.062Z,102721.41
2019-03-22T07:45:34.459Z,102719.34
2019-03-22T07:46:35.834Z,102718.97
2019-03-22T07:47:37.320Z,102717.63
2019-03-22T07:48:38.693Z,102723.00
2019-03-22T07:49:40.096Z,102719.44
2019-03-22T07:50:41.481Z,102724.34
2019-03-22T07:51:42.874Z,102725.31
2019-03-22T07:52:44.262Z,102722.63
2019-03-22T07:53:45.649Z,102724.81
2019-03-22T07:54:47.039Z,102722.13
2019-03-22T07:55:48.553Z,102727.03
2019-03-22T07:56:49.937Z,102721.28
2019-03-22T07:57:51.335Z,102726.66
2019-03-22T07:58:52.886Z,102728.84
2019-03-22T07:59:54.279Z,102731.06
2019-03-22T08:00:55.691Z,102735.20
2019-03-22T08:01:57.175Z,102737.04
2019-03-22T08:02:58.587Z,102734.35
2019-03-22T08:04:00.998Z,102737.52
2019-03-22T08:05:04.110Z,102744.73
2019-03-22T08:06:05.554Z,102744.73
2019-03-22T08:07:07.036Z,102751.45
2019-03-22T08:08:08.434Z,102750.11
2019-03-22T08:09:09.807Z,102751.92
2019-03-22T08:10:11.401Z,102753.27
2019-03-22T08:11:12.911Z,102747.52
2019-03-22T08:12:14.399Z,102745.34
2019-03-22T08:13:15.914Z,102748.86
2019-03-22T08:14:17.328Z,102751.09
2019-03-22T08:15:26.781Z,102751.09
2019-03-22T08:16:28.414Z,102751.09
2019-03-22T08:17:29.775Z,102750.48
2019-03-22T08:18:31.305Z,102744.37
2019-03-22T08:19:32.671Z,102738.98
2019-03-22T08:20:34.100Z,102744.83
2019-03-22T08:21:35.561Z,102744.83
2019-03-22T08:22:37.064Z,102743.02
2019-03-22T08:23:38.490Z,102742.66
2019-03-22T08:24:39.885Z,102734.22
2019-03-22T08:25:43.480Z,102739.46
2019-03-22T08:26:44.601Z,102735.94
2019-03-22T08:27:46.086Z,102735.06
2019-03-22T08:28:47.500Z,102740.56
2019-03-22T08:29:49.032Z,102745.94
2019-03-22T08:30:50.540Z,102744.59
2019-03-22T08:31:51.905Z,102749.60
2019-03-22T08:32:53.294Z,102751.79
2019-03-22T08:33:54.677Z,102748.36
2019-03-22T08:34:56.168Z,102753.87
2019-03-22T08:35:57.556Z,102745.91
2019-03-22T08:36:58.949Z,102740.06
2019-03-22T08:38:00.335Z,102739.32
2019-03-22T08:39:06.247Z,102737.61
2019-03-22T08:40:07.829Z,102738.58
2019-03-22T08:41:09.201Z,102735.52
2019-03-22T08:42:10.593Z,102741.84
2019-03-22T08:43:11.956Z,102738.78
2019-03-22T08:44:13.343Z,102735.72
2019-03-22T08:45:14.840Z,102738.17
2019-03-22T08:46:16.350Z,102739.52
2019-03-22T08:47:17.728Z,102738.03
2019-03-22T08:48:19.216Z,102739.38
2019-03-22T08:49:20.778Z,102739.98
2019-03-22T08:50:22.172Z,102748.92
2019-03-22T08:51:23.582Z,102739.98
2019-03-22T08:52:24.967Z,102742.20
2019-03-22T08:53:26.349Z,102737.80
2019-03-22T08:54:27.759Z,102733.27
2019-03-22T08:55:29.121Z,102730.58
2019-03-22T08:56:30.514Z,102731.92
2019-03-22T08:57:31.916Z,102735.35
2019-03-22T08:58:34.291Z,102729.00
2019-03-22T08:59:35.717Z,102728.03
2019-03-22T09:00:39.699Z,102733.77
2019-03-22T09:01:40.446Z,102729.74
2019-03-22T09:02:41.853Z,102723.90
2019-03-22T09:03:43.395Z,102724.37
2019-03-22T09:04:44.928Z,102721.68
2019-03-22T09:05:46.346Z,102724.00
2019-03-22T09:06:47.754Z,102719.50
2019-03-22T09:07:49.175Z,102723.16
2019-03-22T09:08:50.634Z,102727.66
2019-03-22T09:09:52.093Z,102724.50
2019-03-22T09:10:53.566Z,102730.72
2019-03-22T09:11:54.911Z,102723.16
2019-03-22T09:12:56.473Z,102725.71
2019-03-22T09:13:57.914Z,102727.45
2019-03-22T09:14:59.324Z,102731.96
2019-03-22T09:16:00.733Z,102726.95
2019-03-22T09:17:02.183Z,102723.80
2019-03-22T09:18:03.582Z,102722.09
2019-03-22T09:19:04.944Z,102721.11
2019-03-22T09:20:08.828Z,102717.92
2019-03-22T09:21:10.231Z,102710.73
2019-03-22T09:22:11.759Z,102712.08
2019-03-22T09:23:13.196Z,102713.79
2019-03-22T09:24:14.627Z,102711.57
2019-03-22T09:25:16.085Z,102713.79
2019-03-22T09:26:19.931Z,102718.80
2019-03-22T09:27:20.869Z,102713.79
2019-03-22T09:28:22.255Z,102711.94
2019-03-22T09:29:23.795Z,102715.50
2019-03-22T09:30:25.156Z,102715.60
2019-03-22T09:31:26.660Z,102719.16
2019-03-22T09:32:28.067Z,102718.29
2019-03-22T09:33:29.638Z,102720.14
2019-03-22T09:34:33.988Z,102721.11
2019-03-22T09:35:34.311Z,102721.95
2019-03-22T09:36:35.708Z,102715.73
2019-03-22T09:37:37.108Z,102721.11
2019-03-22T09:38:38.601Z,102724.27
2019-03-22T09:39:40.275Z,102725.61
2019-03-22T09:40:41.747Z,102718.99
2019-03-22T09:41:43.182Z,102717.18
2019-03-22T09:42:44.555Z,102717.28
2019-03-22T09:43:45.927Z,102724.00
2019-03-22T09:44:47.610Z,102712.88
2019-03-22T09:45:49.005Z,102714.59
2019-03-22T09:46:50.413Z,102708.84
2019-03-22T09:47:51.883Z,102703.48
2019-03-22T09:48:53.408Z,102711.53
2019-03-22T09:49:54.785Z,102701.29
2019-03-22T09:50:56.275Z,102696.52
2019-03-22T09:51:57.725Z,102699.95
2019-03-22T09:52:59.218Z,102693.23
2019-03-22T09:54:00.679Z,102692.36
2019-03-22T09:55:12.614Z,102691.89
2019-03-22T09:56:05.532Z,102690.04
2019-03-22T09:57:06.887Z,102682.48
2019-03-22T09:58:08.354Z,102685.64
2019-03-22T09:59:09.777Z,102680.27
2019-03-22T10:00:18.135Z,102688.59
2019-03-22T10:01:23.965Z,102681.00
2019-03-22T10:02:23.087Z,102671.03
2019-03-22T10:03:24.553Z,102664.78
2019-03-22T10:04:26.066Z,102661.22
2019-03-22T10:05:27.411Z,102660.75
2019-03-22T10:06:28.822Z,102664.78
2019-03-22T10:07:30.188Z,102661.22
2019-03-22T10:08:31.685Z,102655.84
2019-03-22T10:09:33.176Z,102657.32
2019-03-22T10:10:34.599Z,102656.81
2019-03-22T10:11:36.003Z,102662.46
2019-03-22T10:12:37.531Z,102658.94
2019-03-22T10:13:39.044Z,102653.05
2019-03-22T10:14:40.443Z,102647.21
2019-03-22T10:15:41.874Z,102644.52
2019-03-22T10:16:43.324Z,102646.23
2019-03-22T10:17:44.701Z,102635.59
2019-03-22T10:18:46.137Z,102644.52
2019-03-22T10:19:47.638Z,102633.87
2019-03-22T10:20:49.107Z,102637.80
2019-03-22T10:21:50.661Z,102632.43
2019-03-22T10:22:52.327Z,102629.74
2019-03-22T10:23:53.823Z,102623.03
2019-03-22T10:24:55.248Z,102627.89
2019-03-22T10:25:56.735Z,102622.16
2019-03-22T10:26:58.091Z,102624.37
2019-03-22T10:27:59.540Z,102617.14
2019-03-22T10:29:01.044Z,102620.34
2019-03-22T10:30:06.168Z,102608.24
2019-03-22T10:31:07.946Z,102609.95
2019-03-22T10:32:09.441Z,102609.95
2019-03-22T10:33:22.156Z,102606.91
2019-03-22T10:34:14.198Z,102611.91
2019-03-22T10:35:25.567Z,102607.47
2019-03-22T10:36:19.962Z,102603.08
2019-03-22T10:37:21.391Z,102599.55
2019-03-22T10:38:31.012Z,102600.52
2019-03-22T10:39:26.042Z,102597.84
2019-03-22T10:40:27.456Z,102592.09
2019-03-22T10:41:28.823Z,102590.86
2019-03-22T10:42:30.270Z,102589.87
2019-03-22T10:43:31.698Z,102588.17
2019-03-22T10:44:33.229Z,102583.30
2019-03-22T10:45:34.760Z,102579.13
2019-03-22T10:46:36.235Z,102576.95
2019-03-22T10:47:37.695Z,102570.59
2019-03-22T10:48:40.818Z,102572.78
2019-03-22T10:49:42.520Z,102567.41
2019-03-22T10:50:43.970Z,102566.57
2019-03-22T10:51:56.230Z,102569.63
2019-03-22T10:52:48.712Z,102568.28
2019-03-22T10:53:50.107Z,102562.03
2019-03-22T10:54:51.583Z,102560.69
2019-03-22T10:55:52.976Z,102561.05
2019-03-22T10:56:54.356Z,102550.81
2019-03-22T10:57:55.766Z,102554.70
2019-03-22T10:58:57.142Z,102553.36
2019-03-22T10:59:58.537Z,102549.84
2019-03-22T11:00:59.930Z,102552.89
2019-03-22T11:02:03.562Z,102542.14
2019-03-22T11:03:04.977Z,102545.67
2019-03-22T11:05:09.082Z,102535.80
2019-03-22T11:06:10.497Z,102533.98
2019-03-22T11:07:11.877Z,102523.59
2019-03-22T11:08:13.275Z,102527.63
2019-03-22T11:09:14.655Z,102521.28
2019-03-22T11:10:16.050Z,102514.92
2019-03-22T11:11:17.542Z,102514.42
2019-03-22T11:12:18.984Z,102511.27
2019-03-22T11:13:20.528Z,102512.97
2019-03-22T11:14:21.982Z,102511.13
2019-03-22T11:15:24.047Z,102505.27
2019-03-22T11:16:25.645Z,102513.70
2019-03-22T11:17:28.063Z,102514.55
2019-03-22T11:18:36.978Z,102510.88
2019-03-22T11:19:32.767Z,102508.70
2019-03-22T11:20:34.225Z,102503.69
2019-03-22T11:21:35.659Z,102502.81
2019-03-22T11:22:37.100Z,102500.63
2019-03-22T11:23:38.520Z,102492.57
2019-03-22T11:24:40.057Z,102484.00
2019-03-22T11:25:41.593Z,102486.69
2019-03-22T11:26:43.023Z,102475.58
2019-03-22T11:27:44.424Z,102474.59
2019-03-22T11:28:45.850Z,102476.92
2019-03-22T11:29:47.256Z,102472.78
2019-03-22T11:30:48.791Z,102468.38
2019-03-22T11:31:50.200Z,102462.03
2019-03-22T11:32:52.217Z,102460.32
2019-03-22T11:33:53.629Z,102462.14
2019-03-22T11:34:55.122Z,102460.80
2019-03-22T11:35:56.518Z,102454.95
2019-03-22T11:36:58.045Z,102453.23
2019-03-22T11:37:59.548Z,102445.17
2019-03-22T11:39:00.977Z,102446.52
2019-03-22T11:40:07.527Z,102446.52
2019-03-22T11:41:08.954Z,102448.34
2019-03-22T11:42:10.468Z,102445.55
2019-03-22T11:43:11.878Z,102452.88
2019-03-22T11:44:13.277Z,102447.50
2019-03-22T11:45:19.127Z,102444.30